メインページ
METAR-TAF:

METAR-TAF

空港 :

パゴパゴ国際空港

パゴパゴ, 合衆国領有小離島

緯度: 14-20S, 経度: 170-43W, 海抜: 3m

現時点の気象観測

当レポートは12分前の19:52(UTC)に作成
南/南東の風 9kt
気温 29°C
湿度 84%
気圧 1012 hPa
視程: 16.1km
高度1400ftの雲は散在している, 積乱雲.
高度3800ftの千切れ雲あり
高度10000ftの曇り
激しい雷雨, 弱いにわか雨

METAR: NSTU 211952Z 15009KT 10SM TS -SHRA SCT014CB BKN038 OVC100 29/26 A2988 RMK SHRAB28 FRQ LTGIC W TSB46 W CB W-N-E-SE SLP120 T02910262

時間: 09:04 (20:04 UTC)

予報

当レポートは3時間13分前の16:51(UTC)に作成
予報は21日の 17時(UTC)から 22日の 12時(UTC)まで有効
南東の風 10kt
視程: 10km
高度1800ftの雲は散在している
高度4000ftの千切れ雲あり
高度10000ftの千切れ雲あり
近辺でにわか雨
21日の 17時(UTC)から 21日の 19時(UTC)まで一時的に
視程: 4.8km
高度1300ftの千切れ雲あり, 積乱雲.
高度3500ftの千切れ雲あり
激しい雷雨, 大雨, 靄

TAF: NSTU 211651Z 2117/2212 14010KT P6SM VCSH SCT018 BKN040 BKN100 TEMPO 2117/2119 3SM +TSRA BR BKN013CB BKN035

4,000以上の空港の気象観測と天気予報(METAR報とTAF報)

利用可能な観測所は地図上に黄色い丸と赤い丸で示す。

丸の上にカーソルを重ねると観測所名を参照できる。

次にクリックすると気象観測と天気予報を参照できる。

マップの切り替え:黒色「×」印の緑ボタンをクリックして拡大、「-」印の緑ボタンをクリックして縮小、緑色の三角印をクリックして隣りの地図に切り替え


METAR-TAF: